TVF8603 DTTJ-LFPO
Flight info
| Callsign | TVF8603 |
|---|---|
| Flight time | 2h 26m |
| Altitude | 22000 |
| Route | TINAP1A TINAP A856 KIRAS/N0439F320 UZ147 DIMAO/N0410F280 UG6 SALMA/N0396F260 DCT NOLVI DCT SURJU DCT PADKO DCT MRM DCT MTL DCT ETREK DCT MADOT DCT MOPEM DCT PIBAT |
| Aircraft | B738/M-SDFGHIJ1RWXY/LB1 |
Departure
| Time | 2026-04-20 17:46 |
|---|---|
| Airport | Djerba Zarzis International Airport (DTTJ) |
Arrival
| Time | 2026-04-20 20:13 |
|---|---|
| Airport | Paris-Orly Airport (LFPO) |
| Time | Latitude | Longitude | Altitude | Speed | Heading |
|---|---|---|---|---|---|
| 2026-04-20 17:18 | 33.87288 | 10.77422 | 32 ft | 0 kts | 134° |
| 2026-04-20 17:39 | 33.87292 | 10.77417 | 29 ft | 4 kts | 134° |
| 2026-04-20 17:40 | 33.87311 | 10.77394 | 31 ft | 4 kts | 134° |
| 2026-04-20 17:40 | 33.87327 | 10.77374 | 30 ft | 3 kts | 135° |
| 2026-04-20 17:40 | 33.87348 | 10.77356 | 31 ft | 4 kts | 169° |
| 2026-04-20 17:40 | 33.87369 | 10.77361 | 28 ft | 4 kts | 234° |
| 2026-04-20 17:41 | 33.87378 | 10.77389 | 31 ft | 3 kts | 266° |
| 2026-04-20 17:41 | 33.87379 | 10.77394 | 31 ft | 0 kts | 268° |
| 2026-04-20 17:43 | 33.87378 | 10.77391 | 31 ft | 1 kts | 268° |
| 2026-04-20 17:43 | 33.87378 | 10.77357 | 29 ft | 7 kts | 268° |
| 2026-04-20 17:43 | 33.87369 | 10.77272 | 26 ft | 13 kts | 263° |
| 2026-04-20 17:44 | 33.87364 | 10.77139 | 26 ft | 19 kts | 268° |
| 2026-04-20 17:44 | 33.87359 | 10.76962 | 26 ft | 23 kts | 268° |
| 2026-04-20 17:44 | 33.87353 | 10.76747 | 21 ft | 27 kts | 268° |
| 2026-04-20 17:44 | 33.87347 | 10.76526 | 20 ft | 26 kts | 268° |
| 2026-04-20 17:45 | 33.87342 | 10.76321 | 19 ft | 24 kts | 268° |
| 2026-04-20 17:45 | 33.87338 | 10.76129 | 15 ft | 19 kts | 276° |
| 2026-04-20 17:45 | 33.87424 | 10.76052 | 20 ft | 17 kts | 359° |
| 2026-04-20 17:45 | 33.87501 | 10.76097 | 21 ft | 13 kts | 78° |
| 2026-04-20 17:46 | 33.87508 | 10.76250 | 20 ft | 38 kts | 88° |
| 2026-04-20 17:46 | 33.87523 | 10.76857 | 17 ft | 106 kts | 88° |
| 2026-04-20 17:46 | 33.87556 | 10.77971 | 60 ft | 156 kts | 89° |
| 2026-04-20 17:46 | 33.87618 | 10.79296 | 673 ft | 159 kts | 88° |
| 2026-04-20 17:47 | 33.87381 | 10.80586 | 1270 ft | 163 kts | 128° |
| 2026-04-20 17:47 | 33.86378 | 10.81292 | 1741 ft | 179 kts | 175° |
| 2026-04-20 17:47 | 33.85249 | 10.80861 | 2405 ft | 177 kts | 226° |
| 2026-04-20 17:47 | 33.84826 | 10.79563 | 3115 ft | 167 kts | 280° |
| 2026-04-20 17:48 | 33.85262 | 10.78265 | 3596 ft | 182 kts | 309° |
| 2026-04-20 17:48 | 33.86285 | 10.77191 | 3825 ft | 207 kts | 320° |
| 2026-04-20 17:48 | 33.87473 | 10.76057 | 3993 ft | 229 kts | 320° |
| 2026-04-20 17:48 | 33.88786 | 10.74820 | 4172 ft | 250 kts | 320° |
| 2026-04-20 17:49 | 33.90198 | 10.73493 | 4622 ft | 263 kts | 320° |
| 2026-04-20 17:49 | 33.91649 | 10.72130 | 5383 ft | 265 kts | 320° |
| 2026-04-20 17:49 | 33.93079 | 10.70784 | 6189 ft | 265 kts | 319° |
| 2026-04-20 17:49 | 33.94544 | 10.69399 | 6874 ft | 270 kts | 319° |
| 2026-04-20 17:50 | 33.96030 | 10.67993 | 7582 ft | 273 kts | 319° |
| 2026-04-20 17:50 | 33.97526 | 10.66573 | 8316 ft | 275 kts | 319° |
| 2026-04-20 17:50 | 33.99037 | 10.65137 | 9040 ft | 278 kts | 319° |
| 2026-04-20 17:50 | 34.00560 | 10.63689 | 9779 ft | 280 kts | 319° |
| 2026-04-20 17:51 | 34.02096 | 10.62225 | 10450 ft | 282 kts | 320° |
| 2026-04-20 17:51 | 34.03636 | 10.60757 | 11164 ft | 284 kts | 320° |
| 2026-04-20 17:51 | 34.05194 | 10.59271 | 11808 ft | 288 kts | 320° |
| 2026-04-20 17:51 | 34.06761 | 10.57776 | 12401 ft | 295 kts | 320° |
| 2026-04-20 17:52 | 34.08373 | 10.56235 | 13108 ft | 297 kts | 320° |
| 2026-04-20 17:52 | 34.10009 | 10.54673 | 13788 ft | 302 kts | 319° |
| 2026-04-20 17:52 | 34.11657 | 10.53097 | 14466 ft | 304 kts | 320° |
| 2026-04-20 17:52 | 34.13322 | 10.51503 | 15118 ft | 307 kts | 320° |
| 2026-04-20 17:53 | 34.14998 | 10.49899 | 15858 ft | 307 kts | 319° |
| 2026-04-20 17:53 | 34.16683 | 10.48285 | 16489 ft | 312 kts | 319° |
| 2026-04-20 17:53 | 34.18395 | 10.46644 | 17148 ft | 315 kts | 319° |
| 2026-04-20 17:53 | 34.20092 | 10.45016 | 17853 ft | 317 kts | 319° |
| 2026-04-20 17:54 | 34.21828 | 10.43351 | 18468 ft | 321 kts | 319° |
| 2026-04-20 17:54 | 34.23587 | 10.41670 | 19036 ft | 324 kts | 320° |
| 2026-04-20 17:54 | 34.25379 | 10.40015 | 19656 ft | 325 kts | 321° |
| 2026-04-20 17:54 | 34.27188 | 10.38369 | 20277 ft | 326 kts | 321° |
| 2026-04-20 17:55 | 34.29007 | 10.36717 | 20881 ft | 328 kts | 321° |
| 2026-04-20 17:55 | 34.30836 | 10.35054 | 21481 ft | 330 kts | 321° |
| 2026-04-20 17:55 | 34.32677 | 10.33377 | 22069 ft | 332 kts | 321° |
| 2026-04-20 17:55 | 34.34525 | 10.31690 | 22659 ft | 334 kts | 320° |
| 2026-04-20 17:56 | 34.36359 | 10.30013 | 23233 ft | 336 kts | 320° |
| 2026-04-20 17:56 | 34.38229 | 10.28301 | 23755 ft | 338 kts | 320° |
| 2026-04-20 17:56 | 34.40110 | 10.26576 | 24220 ft | 340 kts | 320° |
| 2026-04-20 17:56 | 34.42001 | 10.24840 | 24677 ft | 342 kts | 320° |
| 2026-04-20 17:57 | 34.43904 | 10.23093 | 25130 ft | 344 kts | 320° |
| 2026-04-20 17:57 | 34.45818 | 10.21334 | 25576 ft | 346 kts | 320° |
| 2026-04-20 17:57 | 34.47743 | 10.19563 | 26006 ft | 349 kts | 320° |
| 2026-04-20 17:57 | 34.49684 | 10.17777 | 26424 ft | 351 kts | 320° |
| 2026-04-20 17:58 | 34.51610 | 10.16003 | 26849 ft | 354 kts | 320° |
| 2026-04-20 17:58 | 34.53574 | 10.14194 | 27277 ft | 356 kts | 320° |
| 2026-04-20 17:58 | 34.55551 | 10.12370 | 27691 ft | 358 kts | 320° |
| 2026-04-20 17:58 | 34.57540 | 10.10535 | 28118 ft | 360 kts | 320° |
| 2026-04-20 17:59 | 34.59538 | 10.08692 | 28556 ft | 362 kts | 320° |
| 2026-04-20 17:59 | 34.61544 | 10.06839 | 28967 ft | 363 kts | 320° |
| 2026-04-20 17:59 | 34.63563 | 10.04972 | 29353 ft | 366 kts | 320° |
| 2026-04-20 17:59 | 34.65593 | 10.03095 | 29733 ft | 368 kts | 320° |
| 2026-04-20 18:00 | 34.67638 | 10.01203 | 30100 ft | 370 kts | 320° |
| 2026-04-20 18:00 | 34.69665 | 9.99326 | 30397 ft | 372 kts | 319° |
| 2026-04-20 18:00 | 34.71728 | 9.97414 | 30739 ft | 373 kts | 319° |
| 2026-04-20 18:00 | 34.73795 | 9.95497 | 31053 ft | 375 kts | 319° |
| 2026-04-20 18:01 | 34.75874 | 9.93568 | 31344 ft | 377 kts | 319° |
| 2026-04-20 18:01 | 34.77965 | 9.91627 | 31633 ft | 379 kts | 319° |
| 2026-04-20 18:01 | 34.80065 | 9.89676 | 31911 ft | 381 kts | 319° |
| 2026-04-20 18:02 | 34.84331 | 9.85706 | 31967 ft | 388 kts | 319° |
| 2026-04-20 18:02 | 34.88550 | 9.81782 | 31943 ft | 381 kts | 319° |
| 2026-04-20 18:03 | 34.92770 | 9.77847 | 31968 ft | 384 kts | 319° |
| 2026-04-20 18:03 | 34.97025 | 9.73874 | 31968 ft | 387 kts | 319° |
| 2026-04-20 18:04 | 35.01334 | 9.69842 | 31974 ft | 397 kts | 319° |
| 2026-04-20 18:04 | 35.05787 | 9.65669 | 31971 ft | 410 kts | 319° |
| 2026-04-20 18:05 | 35.12694 | 9.59189 | 31989 ft | 428 kts | 319° |
| 2026-04-20 18:05 | 35.17471 | 9.54701 | 31971 ft | 438 kts | 319° |
| 2026-04-20 18:06 | 35.22353 | 9.50109 | 31970 ft | 447 kts | 319° |
| 2026-04-20 18:06 | 35.27271 | 9.45475 | 31945 ft | 450 kts | 319° |
| 2026-04-20 18:07 | 35.32239 | 9.40788 | 31967 ft | 452 kts | 319° |
| 2026-04-20 18:07 | 35.37217 | 9.36082 | 31974 ft | 452 kts | 319° |
| 2026-04-20 18:08 | 35.42198 | 9.31365 | 31990 ft | 452 kts | 319° |
| 2026-04-20 18:08 | 35.47139 | 9.26677 | 31986 ft | 452 kts | 319° |
| 2026-04-20 18:09 | 35.52103 | 9.21961 | 31994 ft | 451 kts | 319° |
| 2026-04-20 18:09 | 35.57060 | 9.17244 | 31994 ft | 450 kts | 319° |
| 2026-04-20 18:10 | 35.62005 | 9.12530 | 31998 ft | 450 kts | 319° |
| 2026-04-20 18:10 | 35.66946 | 9.07813 | 31996 ft | 450 kts | 319° |
| 2026-04-20 18:11 | 35.71849 | 9.03124 | 32000 ft | 450 kts | 319° |
| 2026-04-20 18:11 | 35.76790 | 8.98392 | 32000 ft | 450 kts | 319° |
| 2026-04-20 18:12 | 35.81729 | 8.93653 | 32000 ft | 450 kts | 319° |
| 2026-04-20 18:12 | 35.86670 | 8.88905 | 31994 ft | 451 kts | 319° |
| 2026-04-20 18:13 | 35.91578 | 8.84181 | 31998 ft | 450 kts | 319° |
| 2026-04-20 18:13 | 35.96516 | 8.79421 | 31992 ft | 450 kts | 319° |
| 2026-04-20 18:14 | 36.01449 | 8.74657 | 31992 ft | 450 kts | 319° |
| 2026-04-20 18:14 | 36.06377 | 8.69891 | 31991 ft | 450 kts | 319° |
| 2026-04-20 18:15 | 36.11271 | 8.65150 | 31991 ft | 450 kts | 319° |
| 2026-04-20 18:15 | 36.16198 | 8.60369 | 31986 ft | 450 kts | 319° |
| 2026-04-20 18:16 | 36.21125 | 8.55579 | 31998 ft | 450 kts | 319° |
| 2026-04-20 18:16 | 36.26050 | 8.50784 | 31985 ft | 450 kts | 319° |
| 2026-04-20 18:17 | 36.30942 | 8.46013 | 31990 ft | 450 kts | 319° |
| 2026-04-20 18:17 | 36.35860 | 8.41209 | 31978 ft | 450 kts | 319° |
| 2026-04-20 18:18 | 36.40759 | 8.36373 | 31985 ft | 449 kts | 316° |
| 2026-04-20 18:18 | 36.45170 | 8.30914 | 31997 ft | 448 kts | 311° |
| 2026-04-20 18:19 | 36.49439 | 8.25284 | 32001 ft | 448 kts | 311° |
| 2026-04-20 18:19 | 36.53708 | 8.19713 | 31985 ft | 448 kts | 311° |
| 2026-04-20 18:20 | 36.58032 | 8.14128 | 31985 ft | 448 kts | 311° |
| 2026-04-20 18:20 | 36.62357 | 8.08548 | 31980 ft | 448 kts | 311° |
| 2026-04-20 18:21 | 36.66679 | 8.02961 | 31965 ft | 448 kts | 311° |
| 2026-04-20 18:21 | 36.70967 | 7.97406 | 31966 ft | 448 kts | 311° |
| 2026-04-20 18:22 | 36.75281 | 7.91805 | 31966 ft | 448 kts | 311° |
| 2026-04-20 18:22 | 36.79591 | 7.86203 | 31965 ft | 447 kts | 311° |
| 2026-04-20 18:23 | 36.84388 | 7.81245 | 31980 ft | 451 kts | 326° |
| 2026-04-20 18:23 | 36.90117 | 7.77945 | 31985 ft | 456 kts | 335° |
| 2026-04-20 18:24 | 36.96001 | 7.75126 | 31983 ft | 456 kts | 336° |
| 2026-04-20 18:24 | 37.01921 | 7.72270 | 31973 ft | 456 kts | 335° |
| 2026-04-20 18:25 | 37.07828 | 7.69375 | 31976 ft | 456 kts | 335° |
| 2026-04-20 18:25 | 37.13724 | 7.66460 | 31980 ft | 455 kts | 335° |
| 2026-04-20 18:26 | 37.19577 | 7.63559 | 31980 ft | 455 kts | 335° |
| 2026-04-20 18:26 | 37.25471 | 7.60632 | 31994 ft | 455 kts | 335° |
| 2026-04-20 18:27 | 37.31362 | 7.57704 | 31980 ft | 455 kts | 335° |
| 2026-04-20 18:27 | 37.37246 | 7.54775 | 31980 ft | 455 kts | 335° |
| 2026-04-20 18:28 | 37.43082 | 7.51864 | 31981 ft | 454 kts | 335° |
| 2026-04-20 18:28 | 37.48955 | 7.48930 | 31993 ft | 454 kts | 335° |
| 2026-04-20 18:29 | 37.54827 | 7.45992 | 31984 ft | 454 kts | 335° |
| 2026-04-20 18:29 | 37.60695 | 7.43050 | 31984 ft | 454 kts | 335° |
| 2026-04-20 18:30 | 37.66522 | 7.40125 | 31986 ft | 454 kts | 335° |
| 2026-04-20 18:30 | 37.72386 | 7.37175 | 31993 ft | 454 kts | 335° |
| 2026-04-20 18:31 | 37.78245 | 7.34223 | 31987 ft | 453 kts | 335° |
| 2026-04-20 18:31 | 37.84101 | 7.31268 | 31986 ft | 453 kts | 335° |
| 2026-04-20 18:32 | 37.89951 | 7.28310 | 31986 ft | 453 kts | 335° |
| 2026-04-20 18:32 | 37.95759 | 7.25369 | 31987 ft | 453 kts | 335° |
| 2026-04-20 18:33 | 38.01607 | 7.22402 | 31988 ft | 452 kts | 335° |
| 2026-04-20 18:33 | 38.07450 | 7.19433 | 31988 ft | 452 kts | 335° |
| 2026-04-20 18:34 | 38.13285 | 7.16463 | 31987 ft | 452 kts | 335° |
| 2026-04-20 18:34 | 38.19121 | 7.13487 | 31989 ft | 452 kts | 335° |
| 2026-04-20 18:35 | 38.24914 | 7.10527 | 31989 ft | 452 kts | 335° |
| 2026-04-20 18:35 | 38.30742 | 7.07545 | 31989 ft | 452 kts | 335° |
| 2026-04-20 18:36 | 38.36574 | 7.04556 | 31992 ft | 452 kts | 335° |
| 2026-04-20 18:36 | 38.42403 | 7.01563 | 31992 ft | 452 kts | 335° |
| 2026-04-20 18:37 | 38.48195 | 6.98584 | 32000 ft | 452 kts | 335° |
| 2026-04-20 18:37 | 38.54023 | 6.95580 | 31990 ft | 452 kts | 335° |
| 2026-04-20 18:38 | 38.59848 | 6.92574 | 31991 ft | 451 kts | 335° |
| 2026-04-20 18:38 | 38.65667 | 6.89565 | 31992 ft | 451 kts | 335° |
| 2026-04-20 18:39 | 38.71487 | 6.86549 | 32003 ft | 451 kts | 335° |
| 2026-04-20 18:39 | 38.77263 | 6.83552 | 31991 ft | 451 kts | 335° |
| 2026-04-20 18:40 | 38.83069 | 6.80534 | 31993 ft | 450 kts | 335° |
| 2026-04-20 18:40 | 38.88867 | 6.77515 | 31995 ft | 449 kts | 335° |
| 2026-04-20 18:41 | 38.94656 | 6.74494 | 32004 ft | 449 kts | 335° |
| 2026-04-20 18:41 | 39.00411 | 6.71503 | 31993 ft | 449 kts | 336° |
| 2026-04-20 18:42 | 39.06399 | 6.69127 | 32004 ft | 452 kts | 342° |
| 2026-04-20 18:42 | 39.12514 | 6.67211 | 31996 ft | 452 kts | 343° |
| 2026-04-20 18:43 | 39.18634 | 6.65312 | 32009 ft | 453 kts | 343° |
| 2026-04-20 18:43 | 39.24756 | 6.63375 | 31999 ft | 453 kts | 343° |
| 2026-04-20 18:44 | 39.30831 | 6.61428 | 32000 ft | 453 kts | 342° |
| 2026-04-20 18:44 | 39.36948 | 6.59458 | 31999 ft | 453 kts | 342° |
| 2026-04-20 18:45 | 39.43066 | 6.57485 | 32006 ft | 453 kts | 342° |
| 2026-04-20 18:45 | 39.49191 | 6.55506 | 31998 ft | 454 kts | 342° |
| 2026-04-20 18:46 | 39.55276 | 6.53537 | 31997 ft | 454 kts | 342° |
| 2026-04-20 18:46 | 39.61400 | 6.51551 | 31991 ft | 454 kts | 342° |
| 2026-04-20 18:47 | 39.67529 | 6.49561 | 31996 ft | 454 kts | 342° |
| 2026-04-20 18:47 | 39.73654 | 6.47568 | 31992 ft | 454 kts | 342° |
| 2026-04-20 18:48 | 39.79781 | 6.45571 | 31994 ft | 453 kts | 342° |
| 2026-04-20 18:48 | 39.85853 | 6.43589 | 32003 ft | 453 kts | 342° |
| 2026-04-20 18:49 | 39.91967 | 6.41589 | 31992 ft | 453 kts | 342° |
| 2026-04-20 18:49 | 39.98073 | 6.39587 | 31992 ft | 452 kts | 342° |
| 2026-04-20 18:50 | 40.04179 | 6.37582 | 31991 ft | 452 kts | 342° |
| 2026-04-20 18:50 | 40.10283 | 6.35574 | 32004 ft | 452 kts | 342° |
| 2026-04-20 18:51 | 40.16348 | 6.33575 | 31996 ft | 453 kts | 342° |
| 2026-04-20 18:51 | 40.22455 | 6.31559 | 31987 ft | 453 kts | 342° |
| 2026-04-20 18:52 | 40.28565 | 6.29537 | 31995 ft | 453 kts | 342° |
| 2026-04-20 18:52 | 40.34674 | 6.27513 | 31990 ft | 453 kts | 342° |
| 2026-04-20 18:53 | 40.40741 | 6.25498 | 31996 ft | 453 kts | 342° |
| 2026-04-20 18:53 | 40.46851 | 6.23466 | 31996 ft | 453 kts | 342° |
| 2026-04-20 18:54 | 40.52961 | 6.21430 | 31989 ft | 453 kts | 342° |
| 2026-04-20 18:54 | 40.59065 | 6.19392 | 31996 ft | 453 kts | 342° |
| 2026-04-20 18:55 | 40.65133 | 6.17362 | 31992 ft | 453 kts | 342° |
| 2026-04-20 18:55 | 40.71242 | 6.15314 | 31993 ft | 453 kts | 342° |
| 2026-04-20 18:56 | 40.77348 | 6.13264 | 31998 ft | 453 kts | 342° |
| 2026-04-20 18:56 | 40.83456 | 6.11209 | 31985 ft | 453 kts | 342° |
| 2026-04-20 18:57 | 40.89562 | 6.09150 | 31989 ft | 453 kts | 342° |
| 2026-04-20 18:57 | 40.95625 | 6.07103 | 31982 ft | 453 kts | 342° |
| 2026-04-20 18:58 | 41.01724 | 6.05039 | 31986 ft | 453 kts | 342° |
| 2026-04-20 18:58 | 41.07827 | 6.02970 | 31983 ft | 453 kts | 342° |
| 2026-04-20 18:59 | 41.13928 | 6.00898 | 31982 ft | 453 kts | 342° |
| 2026-04-20 18:59 | 41.19988 | 5.98836 | 31997 ft | 453 kts | 342° |
| 2026-04-20 19:00 | 41.26100 | 5.96751 | 31986 ft | 454 kts | 342° |
| 2026-04-20 19:00 | 41.32217 | 5.94661 | 31982 ft | 454 kts | 342° |
| 2026-04-20 19:01 | 41.38339 | 5.92566 | 31980 ft | 455 kts | 342° |
| 2026-04-20 19:01 | 41.44469 | 5.90464 | 31982 ft | 455 kts | 342° |
| 2026-04-20 19:02 | 41.50565 | 5.88369 | 31979 ft | 456 kts | 342° |
| 2026-04-20 19:02 | 41.56703 | 5.86256 | 31976 ft | 456 kts | 342° |
| 2026-04-20 19:03 | 41.62844 | 5.84137 | 31985 ft | 456 kts | 342° |
| 2026-04-20 19:03 | 41.68985 | 5.82015 | 31975 ft | 456 kts | 342° |
| 2026-04-20 19:04 | 41.75080 | 5.79904 | 31969 ft | 456 kts | 342° |
| 2026-04-20 19:04 | 41.81217 | 5.77774 | 31967 ft | 455 kts | 342° |
| 2026-04-20 19:05 | 41.87348 | 5.75643 | 31977 ft | 455 kts | 342° |
| 2026-04-20 19:05 | 41.93471 | 5.73510 | 31961 ft | 454 kts | 342° |
| 2026-04-20 19:06 | 41.99585 | 5.71375 | 31966 ft | 454 kts | 342° |
| 2026-04-20 19:06 | 42.05655 | 5.69252 | 31969 ft | 454 kts | 342° |
| 2026-04-20 19:07 | 42.11759 | 5.67113 | 31958 ft | 453 kts | 341° |
| 2026-04-20 19:07 | 42.17861 | 5.64970 | 31959 ft | 453 kts | 341° |
| 2026-04-20 19:08 | 42.26962 | 5.61766 | 31977 ft | 453 kts | 341° |
| 2026-04-20 19:09 | 42.33052 | 5.59617 | 31948 ft | 452 kts | 341° |
| 2026-04-20 19:09 | 42.39135 | 5.57466 | 31951 ft | 452 kts | 341° |
| 2026-04-20 19:10 | 42.45212 | 5.55312 | 31951 ft | 451 kts | 341° |
| 2026-04-20 19:10 | 42.51245 | 5.53171 | 31961 ft | 451 kts | 341° |
| 2026-04-20 19:11 | 42.57305 | 5.51015 | 31944 ft | 450 kts | 341° |
| 2026-04-20 19:11 | 42.63354 | 5.48859 | 31946 ft | 449 kts | 341° |
| 2026-04-20 19:12 | 42.69396 | 5.46700 | 31949 ft | 449 kts | 341° |
| 2026-04-20 19:12 | 42.75394 | 5.44554 | 31949 ft | 449 kts | 341° |
| 2026-04-20 19:13 | 42.81432 | 5.42388 | 31947 ft | 449 kts | 341° |
| 2026-04-20 19:13 | 42.87469 | 5.40218 | 31945 ft | 449 kts | 340° |
| 2026-04-20 19:14 | 42.93507 | 5.38044 | 31953 ft | 448 kts | 340° |
| 2026-04-20 19:14 | 42.99534 | 5.35870 | 31948 ft | 448 kts | 340° |
| 2026-04-20 19:15 | 43.05511 | 5.33709 | 31947 ft | 447 kts | 340° |
| 2026-04-20 19:15 | 43.11527 | 5.31529 | 31956 ft | 447 kts | 340° |
| 2026-04-20 19:16 | 43.17540 | 5.29346 | 31943 ft | 447 kts | 340° |
| 2026-04-20 19:16 | 43.23555 | 5.27158 | 31938 ft | 447 kts | 340° |
| 2026-04-20 19:17 | 43.29529 | 5.24980 | 31939 ft | 447 kts | 340° |
| 2026-04-20 19:17 | 43.35540 | 5.22785 | 31944 ft | 447 kts | 340° |
| 2026-04-20 19:18 | 43.41549 | 5.20586 | 31941 ft | 447 kts | 340° |
| 2026-04-20 19:18 | 43.47558 | 5.18382 | 31937 ft | 447 kts | 340° |
| 2026-04-20 19:19 | 43.53520 | 5.16191 | 31952 ft | 446 kts | 340° |
| 2026-04-20 19:19 | 43.59520 | 5.13982 | 31941 ft | 446 kts | 340° |
| 2026-04-20 19:20 | 43.65515 | 5.11770 | 31938 ft | 446 kts | 340° |
| 2026-04-20 19:20 | 43.71510 | 5.09553 | 31941 ft | 446 kts | 340° |
| 2026-04-20 19:21 | 43.77503 | 5.07332 | 31942 ft | 446 kts | 340° |
| 2026-04-20 19:21 | 43.83498 | 5.05325 | 31935 ft | 448 kts | 343° |
| 2026-04-20 19:22 | 43.89647 | 5.03825 | 31942 ft | 449 kts | 345° |
| 2026-04-20 19:22 | 43.95801 | 5.02367 | 31944 ft | 449 kts | 345° |
| 2026-04-20 19:23 | 44.01947 | 5.00839 | 31940 ft | 448 kts | 344° |
| 2026-04-20 19:23 | 44.08082 | 4.99274 | 31936 ft | 448 kts | 344° |
| 2026-04-20 19:24 | 44.14173 | 4.97711 | 31952 ft | 448 kts | 344° |
| 2026-04-20 19:24 | 44.20308 | 4.96135 | 31938 ft | 448 kts | 344° |
| 2026-04-20 19:25 | 44.26440 | 4.94558 | 31949 ft | 448 kts | 344° |
| 2026-04-20 19:25 | 44.32563 | 4.92980 | 31964 ft | 447 kts | 344° |
| 2026-04-20 19:26 | 44.38675 | 4.91402 | 31954 ft | 446 kts | 344° |
| 2026-04-20 19:26 | 44.44735 | 4.89833 | 31963 ft | 445 kts | 344° |
| 2026-04-20 19:27 | 44.50827 | 4.88253 | 31970 ft | 445 kts | 344° |
| 2026-04-20 19:27 | 44.56909 | 4.86672 | 31979 ft | 445 kts | 344° |
| 2026-04-20 19:28 | 44.62992 | 4.85084 | 31972 ft | 444 kts | 344° |
| 2026-04-20 19:28 | 44.69014 | 4.83508 | 31971 ft | 444 kts | 344° |
| 2026-04-20 19:29 | 44.75087 | 4.81914 | 31972 ft | 444 kts | 344° |
| 2026-04-20 19:29 | 44.81161 | 4.80317 | 31970 ft | 444 kts | 344° |
| 2026-04-20 19:30 | 44.87229 | 4.78719 | 31975 ft | 443 kts | 344° |
| 2026-04-20 19:30 | 44.93295 | 4.77118 | 31987 ft | 443 kts | 344° |
| 2026-04-20 19:31 | 44.99314 | 4.75525 | 31988 ft | 443 kts | 344° |
| 2026-04-20 19:31 | 45.05376 | 4.73918 | 32010 ft | 443 kts | 344° |
| 2026-04-20 19:32 | 45.11435 | 4.72308 | 32037 ft | 442 kts | 343° |
| 2026-04-20 19:32 | 45.17486 | 4.70697 | 32029 ft | 442 kts | 343° |
| 2026-04-20 19:33 | 45.23495 | 4.69094 | 32027 ft | 442 kts | 343° |
| 2026-04-20 19:33 | 45.29539 | 4.67478 | 32052 ft | 442 kts | 343° |
| 2026-04-20 19:34 | 45.35582 | 4.65862 | 32037 ft | 442 kts | 343° |
| 2026-04-20 19:34 | 45.41615 | 4.64240 | 32036 ft | 441 kts | 343° |
| 2026-04-20 19:35 | 45.47604 | 4.62626 | 32038 ft | 441 kts | 343° |
| 2026-04-20 19:35 | 45.53631 | 4.61000 | 32044 ft | 441 kts | 343° |
| 2026-04-20 19:36 | 45.59650 | 4.59373 | 32017 ft | 440 kts | 343° |
| 2026-04-20 19:36 | 45.65662 | 4.57744 | 32046 ft | 440 kts | 343° |
| 2026-04-20 19:37 | 45.71631 | 4.56124 | 32051 ft | 439 kts | 343° |
| 2026-04-20 19:37 | 45.77634 | 4.54490 | 32045 ft | 439 kts | 343° |
| 2026-04-20 19:38 | 45.83641 | 4.52853 | 32052 ft | 439 kts | 343° |
| 2026-04-20 19:38 | 45.89642 | 4.51213 | 32074 ft | 439 kts | 343° |
| 2026-04-20 19:39 | 45.95484 | 4.48946 | 32061 ft | 431 kts | 334° |
| 2026-04-20 19:39 | 46.01033 | 4.45842 | 32047 ft | 431 kts | 333° |
| 2026-04-20 19:40 | 46.06618 | 4.42684 | 32057 ft | 431 kts | 333° |
| 2026-04-20 19:40 | 46.12226 | 4.39567 | 32046 ft | 432 kts | 334° |
| 2026-04-20 19:41 | 46.17848 | 4.36471 | 32034 ft | 432 kts | 334° |
| 2026-04-20 19:41 | 46.23426 | 4.33403 | 32036 ft | 432 kts | 334° |
| 2026-04-20 19:42 | 46.29037 | 4.30312 | 32071 ft | 431 kts | 334° |
| 2026-04-20 19:42 | 46.34648 | 4.27211 | 32044 ft | 432 kts | 334° |
| 2026-04-20 19:43 | 46.40257 | 4.24104 | 32038 ft | 431 kts | 334° |
| 2026-04-20 19:43 | 46.45825 | 4.21013 | 32047 ft | 431 kts | 334° |
| 2026-04-20 19:44 | 46.51433 | 4.17893 | 32054 ft | 432 kts | 334° |
| 2026-04-20 19:44 | 46.57044 | 4.14765 | 32046 ft | 432 kts | 334° |
| 2026-04-20 19:45 | 46.62657 | 4.11628 | 32048 ft | 432 kts | 334° |
| 2026-04-20 19:45 | 46.68271 | 4.08484 | 32039 ft | 432 kts | 334° |
| 2026-04-20 19:46 | 46.73843 | 4.05357 | 32039 ft | 432 kts | 334° |
| 2026-04-20 19:46 | 46.79445 | 4.02206 | 32044 ft | 432 kts | 334° |
| 2026-04-20 19:47 | 46.85048 | 3.99047 | 32045 ft | 431 kts | 334° |
| 2026-04-20 19:47 | 46.90612 | 3.95903 | 32078 ft | 432 kts | 334° |
| 2026-04-20 19:48 | 46.96219 | 3.92726 | 32049 ft | 432 kts | 334° |
| 2026-04-20 19:48 | 47.01831 | 3.89541 | 32046 ft | 432 kts | 334° |
| 2026-04-20 19:49 | 47.07437 | 3.86352 | 32050 ft | 432 kts | 334° |
| 2026-04-20 19:49 | 47.13010 | 3.83175 | 32071 ft | 432 kts | 334° |
| 2026-04-20 19:50 | 47.18613 | 3.79973 | 32063 ft | 432 kts | 334° |
| 2026-04-20 19:50 | 47.24218 | 3.76763 | 32069 ft | 432 kts | 334° |
| 2026-04-20 19:51 | 47.29815 | 3.73549 | 32064 ft | 432 kts | 333° |
| 2026-04-20 19:51 | 47.35406 | 3.70329 | 32081 ft | 430 kts | 333° |
| 2026-04-20 19:52 | 47.40813 | 3.66831 | 31282 ft | 425 kts | 330° |
| 2026-04-20 19:52 | 47.43481 | 3.65001 | 30550 ft | 422 kts | 330° |
| 2026-04-20 19:52 | 47.46145 | 3.63166 | 29665 ft | 423 kts | 330° |
| 2026-04-20 19:52 | 47.48818 | 3.61335 | 28721 ft | 423 kts | 330° |
| 2026-04-20 19:53 | 47.51490 | 3.59518 | 27806 ft | 423 kts | 331° |
| 2026-04-20 19:53 | 47.54170 | 3.57705 | 26881 ft | 423 kts | 331° |
| 2026-04-20 19:53 | 47.56858 | 3.55893 | 25938 ft | 428 kts | 331° |
| 2026-04-20 19:53 | 47.59594 | 3.54047 | 25272 ft | 435 kts | 331° |
| 2026-04-20 19:54 | 47.62324 | 3.52206 | 24553 ft | 439 kts | 331° |
| 2026-04-20 19:54 | 47.65029 | 3.50240 | 24120 ft | 426 kts | 328° |
| 2026-04-20 19:54 | 47.67607 | 3.48135 | 23398 ft | 420 kts | 326° |
| 2026-04-20 19:54 | 47.70116 | 3.45982 | 22543 ft | 415 kts | 326° |
| 2026-04-20 19:55 | 47.72600 | 3.43823 | 21641 ft | 413 kts | 326° |
| 2026-04-20 19:55 | 47.75076 | 3.41680 | 20779 ft | 411 kts | 327° |
| 2026-04-20 19:55 | 47.77539 | 3.39566 | 20051 ft | 406 kts | 327° |
| 2026-04-20 19:55 | 47.79976 | 3.37489 | 19310 ft | 402 kts | 328° |
| 2026-04-20 19:56 | 47.81587 | 3.36121 | 18659 ft | 403 kts | 328° |
| 2026-04-20 19:56 | 47.84832 | 3.33372 | 17341 ft | 405 kts | 329° |
| 2026-04-20 19:56 | 47.87267 | 3.31312 | 16660 ft | 399 kts | 329° |
| 2026-04-20 19:56 | 47.89654 | 3.29293 | 16147 ft | 391 kts | 329° |
| 2026-04-20 19:57 | 47.91996 | 3.27311 | 15704 ft | 385 kts | 329° |
| 2026-04-20 19:57 | 47.94343 | 3.25321 | 15482 ft | 392 kts | 329° |
| 2026-04-20 19:57 | 47.96724 | 3.23298 | 15235 ft | 396 kts | 329° |
| 2026-04-20 19:57 | 47.99107 | 3.21272 | 15139 ft | 393 kts | 329° |
| 2026-04-20 19:58 | 48.01478 | 3.19255 | 15114 ft | 392 kts | 329° |
| 2026-04-20 19:58 | 48.03814 | 3.17265 | 15109 ft | 392 kts | 329° |
| 2026-04-20 19:58 | 48.06184 | 3.15244 | 15107 ft | 392 kts | 329° |
| 2026-04-20 19:58 | 48.08553 | 3.13222 | 15081 ft | 391 kts | 329° |
| 2026-04-20 19:59 | 48.10899 | 3.11217 | 14441 ft | 387 kts | 329° |
| 2026-04-20 19:59 | 48.13216 | 3.09236 | 13807 ft | 381 kts | 329° |
| 2026-04-20 19:59 | 48.15503 | 3.07278 | 13098 ft | 376 kts | 329° |
| 2026-04-20 19:59 | 48.17760 | 3.05343 | 12453 ft | 371 kts | 329° |
| 2026-04-20 20:00 | 48.19236 | 3.04076 | 12037 ft | 368 kts | 329° |
| 2026-04-20 20:00 | 48.21445 | 3.02180 | 11379 ft | 364 kts | 329° |
| 2026-04-20 20:00 | 48.24355 | 2.99678 | 10573 ft | 365 kts | 329° |
| 2026-04-20 20:00 | 48.26575 | 2.97766 | 10416 ft | 368 kts | 329° |
| 2026-04-20 20:01 | 48.28789 | 2.95858 | 10298 ft | 368 kts | 329° |
| 2026-04-20 20:01 | 48.31006 | 2.93946 | 10178 ft | 366 kts | 329° |
| 2026-04-20 20:01 | 48.33197 | 2.92055 | 10125 ft | 357 kts | 329° |
| 2026-04-20 20:01 | 48.35295 | 2.90242 | 10112 ft | 338 kts | 329° |
| 2026-04-20 20:02 | 48.36623 | 2.89094 | 10111 ft | 326 kts | 329° |
| 2026-04-20 20:02 | 48.38533 | 2.87442 | 10106 ft | 308 kts | 329° |
| 2026-04-20 20:02 | 48.40344 | 2.85874 | 10111 ft | 293 kts | 329° |
| 2026-04-20 20:02 | 48.42606 | 2.83913 | 10064 ft | 275 kts | 329° |
| 2026-04-20 20:03 | 48.44198 | 2.82417 | 9970 ft | 265 kts | 319° |
| 2026-04-20 20:03 | 48.45261 | 2.80220 | 9735 ft | 261 kts | 294° |
| 2026-04-20 20:03 | 48.45738 | 2.77593 | 9386 ft | 263 kts | 278° |
| 2026-04-20 20:03 | 48.45842 | 2.74841 | 9047 ft | 263 kts | 274° |
| 2026-04-20 20:04 | 48.45875 | 2.73013 | 8815 ft | 264 kts | 273° |
| 2026-04-20 20:04 | 48.45929 | 2.70251 | 8491 ft | 264 kts | 274° |
| 2026-04-20 20:04 | 48.45989 | 2.67487 | 8159 ft | 264 kts | 274° |
| 2026-04-20 20:04 | 48.46058 | 2.64732 | 7902 ft | 262 kts | 275° |
| 2026-04-20 20:05 | 48.46356 | 2.62052 | 7597 ft | 259 kts | 290° |
| 2026-04-20 20:05 | 48.47188 | 2.59682 | 7309 ft | 255 kts | 306° |
| 2026-04-20 20:05 | 48.48190 | 2.57474 | 6964 ft | 257 kts | 306° |
| 2026-04-20 20:05 | 48.49190 | 2.55263 | 6617 ft | 259 kts | 306° |
| 2026-04-20 20:06 | 48.50208 | 2.53030 | 6314 ft | 259 kts | 306° |
| 2026-04-20 20:06 | 48.51204 | 2.50782 | 6061 ft | 256 kts | 307° |
| 2026-04-20 20:06 | 48.52203 | 2.48563 | 5750 ft | 256 kts | 307° |
| 2026-04-20 20:06 | 48.53207 | 2.46323 | 5387 ft | 259 kts | 307° |
| 2026-04-20 20:07 | 48.54212 | 2.44067 | 5054 ft | 259 kts | 306° |
| 2026-04-20 20:07 | 48.55216 | 2.41806 | 4774 ft | 258 kts | 307° |
| 2026-04-20 20:07 | 48.56218 | 2.39570 | 4499 ft | 257 kts | 307° |
| 2026-04-20 20:07 | 48.57214 | 2.37318 | 4118 ft | 260 kts | 307° |
| 2026-04-20 20:08 | 48.58188 | 2.35085 | 3937 ft | 254 kts | 307° |
| 2026-04-20 20:08 | 48.59149 | 2.32895 | 3838 ft | 245 kts | 307° |
| 2026-04-20 20:08 | 48.60074 | 2.30814 | 3718 ft | 231 kts | 308° |
| 2026-04-20 20:08 | 48.60947 | 2.28844 | 3523 ft | 220 kts | 308° |
| 2026-04-20 20:09 | 48.61766 | 2.26956 | 3282 ft | 208 kts | 308° |
| 2026-04-20 20:09 | 48.62636 | 2.25389 | 3116 ft | 182 kts | 330° |
| 2026-04-20 20:09 | 48.63691 | 2.24556 | 2899 ft | 163 kts | 342° |
| 2026-04-20 20:09 | 48.64677 | 2.23839 | 2644 ft | 154 kts | 342° |
| 2026-04-20 20:10 | 48.65597 | 2.23162 | 2480 ft | 143 kts | 342° |
| 2026-04-20 20:10 | 48.66462 | 2.22508 | 2223 ft | 140 kts | 342° |
| 2026-04-20 20:10 | 48.67335 | 2.21862 | 1965 ft | 137 kts | 345° |
| 2026-04-20 20:10 | 48.68212 | 2.21816 | 1786 ft | 128 kts | 32° |
| 2026-04-20 20:11 | 48.68813 | 2.22782 | 1669 ft | 127 kts | 61° |
| 2026-04-20 20:11 | 48.69230 | 2.23955 | 1559 ft | 128 kts | 58° |
| 2026-04-20 20:11 | 48.69673 | 2.25167 | 1403 ft | 136 kts | 60° |
| 2026-04-20 20:11 | 48.70146 | 2.26438 | 1255 ft | 139 kts | 60° |
| 2026-04-20 20:12 | 48.70581 | 2.27721 | 1068 ft | 137 kts | 61° |
| 2026-04-20 20:12 | 48.71027 | 2.28987 | 813 ft | 134 kts | 58° |
| 2026-04-20 20:12 | 48.71482 | 2.30210 | 619 ft | 132 kts | 59° |
| 2026-04-20 20:13 | 48.72346 | 2.32676 | 301 ft | 130 kts | 59° |
| 2026-04-20 20:13 | 48.72692 | 2.33653 | 300 ft | 75 kts | 62° |
| 2026-04-20 20:13 | 48.72836 | 2.34060 | 297 ft | 14 kts | 62° |
| 2026-04-20 20:13 | 48.72895 | 2.34226 | 296 ft | 21 kts | 61° |
| 2026-04-20 20:14 | 48.72962 | 2.34422 | 295 ft | 21 kts | 68° |
| 2026-04-20 20:14 | 48.72998 | 2.34627 | 294 ft | 20 kts | 81° |
| 2026-04-20 20:14 | 48.73018 | 2.34832 | 293 ft | 19 kts | 81° |
| 2026-04-20 20:14 | 48.73036 | 2.35028 | 294 ft | 19 kts | 82° |
| 2026-04-20 20:15 | 48.73020 | 2.35216 | 297 ft | 18 kts | 121° |
| 2026-04-20 20:15 | 48.72922 | 2.35322 | 297 ft | 16 kts | 145° |
| 2026-04-20 20:15 | 48.72861 | 2.35428 | 293 ft | 13 kts | 160° |
| 2026-04-20 20:15 | 48.72775 | 2.35465 | 294 ft | 13 kts | 164° |
| 2026-04-20 20:16 | 48.72691 | 2.35501 | 293 ft | 12 kts | 164° |
| 2026-04-20 20:16 | 48.72609 | 2.35536 | 294 ft | 12 kts | 165° |
| 2026-04-20 20:16 | 48.72529 | 2.35569 | 296 ft | 12 kts | 164° |
| 2026-04-20 20:16 | 48.72462 | 2.35628 | 293 ft | 11 kts | 111° |
| 2026-04-20 20:17 | 48.72475 | 2.35743 | 296 ft | 11 kts | 77° |
| 2026-04-20 20:17 | 48.72474 | 2.35858 | 295 ft | 11 kts | 92° |
| 2026-04-20 20:17 | 48.72469 | 2.35971 | 293 ft | 11 kts | 91° |
| 2026-04-20 20:17 | 48.72480 | 2.36087 | 295 ft | 12 kts | 76° |
| 2026-04-20 20:18 | 48.72506 | 2.36224 | 296 ft | 14 kts | 74° |
| 2026-04-20 20:18 | 48.72532 | 2.36366 | 295 ft | 10 kts | 74° |
| 2026-04-20 20:18 | 48.72549 | 2.36462 | 298 ft | 9 kts | 75° |
| 2026-04-20 20:18 | 48.72574 | 2.36526 | 294 ft | 6 kts | 4° |
| 2026-04-20 20:19 | 48.72615 | 2.36510 | 293 ft | 6 kts | 334° |
| 2026-04-20 20:19 | 48.72639 | 2.36491 | 295 ft | 2 kts | 332° |
| 2026-04-20 20:19 | 48.72643 | 2.36488 | 294 ft | 0 kts | 332° |
| 2026-04-20 20:19 | 48.72643 | 2.36487 | 294 ft | 0 kts | 332° |
| 2026-04-20 20:20 | 48.72644 | 2.36487 | 294 ft | 0 kts | 332° |